sensor_id;sensor_type;location;lat;lon;timestamp;temperature;humidity
75049;DHT22;63803;53.120;8.764;2022-12-31T00:01:35;24.10;57.40
75049;DHT22;63803;53.120;8.764;2022-12-31T00:04:01;24.60;57.20
75049;DHT22;63803;53.120;8.764;2022-12-31T00:06:32;23.40;56.60
75049;DHT22;63803;53.120;8.764;2022-12-31T00:09:00;21.70;55.60
75049;DHT22;63803;53.120;8.764;2022-12-31T00:11:28;20.70;55.00
75049;DHT22;63803;53.120;8.764;2022-12-31T00:13:55;20.30;54.80
75049;DHT22;63803;53.120;8.764;2022-12-31T00:16:24;20.60;55.10
75049;DHT22;63803;53.120;8.764;2022-12-31T00:18:52;20.70;55.00
75049;DHT22;63803;53.120;8.764;2022-12-31T00:21:20;19.90;54.80
75049;DHT22;63803;53.120;8.764;2022-12-31T00:23:46;20.60;55.00
75049;DHT22;63803;53.120;8.764;2022-12-31T00:26:15;24.80;57.30
75049;DHT22;63803;53.120;8.764;2022-12-31T00:28:42;20.60;55.30
75049;DHT22;63803;53.120;8.764;2022-12-31T00:31:11;20.60;50.90
75049;DHT22;63803;53.120;8.764;2022-12-31T00:33:38;20.40;55.20
75049;DHT22;63803;53.120;8.764;2022-12-31T00:36:07;22.40;51.10
75049;DHT22;63803;53.120;8.764;2022-12-31T00:38:34;20.30;55.10
75049;DHT22;63803;53.120;8.764;2022-12-31T00:41:01;20.60;55.30
75049;DHT22;63803;53.120;8.764;2022-12-31T00:43:27;25.00;57.60
75049;DHT22;63803;53.120;8.764;2022-12-31T00:45:53;20.40;55.10
75049;DHT22;63803;53.120;8.764;2022-12-31T00:48:19;21.30;55.50
75049;DHT22;63803;53.120;8.764;2022-12-31T00:50:45;24.00;57.00
75049;DHT22;63803;53.120;8.764;2022-12-31T00:53:11;21.80;55.60
75049;DHT22;63803;53.120;8.764;2022-12-31T00:55:37;20.30;54.80
75049;DHT22;63803;53.120;8.764;2022-12-31T00:58:03;20.50;55.00
75049;DHT22;63803;53.120;8.764;2022-12-31T01:00:29;24.70;54.60
75049;DHT22;63803;53.120;8.764;2022-12-31T01:02:55;20.50;55.00
75049;DHT22;63803;53.120;8.764;2022-12-31T01:05:21;20.60;54.90
75049;DHT22;63803;53.120;8.764;2022-12-31T01:07:47;24.30;56.90
75049;DHT22;63803;53.120;8.764;2022-12-31T01:10:13;21.10;55.10
75049;DHT22;63803;53.120;8.764;2022-12-31T01:15:26;20.80;55.00
75049;DHT22;63803;53.120;8.764;2022-12-31T01:20:18;20.70;55.00
75049;DHT22;63803;53.120;8.764;2022-12-31T01:22:44;20.20;55.00
75049;DHT22;63803;53.120;8.764;2022-12-31T01:25:10;25.70;58.10
75049;DHT22;63803;53.120;8.764;2022-12-31T01:27:36;23.80;56.80
75049;DHT22;63803;53.120;8.764;2022-12-31T01:30:03;20.50;54.90
75049;DHT22;63803;53.120;8.764;2022-12-31T01:32:30;21.30;55.40
75049;DHT22;63803;53.120;8.764;2022-12-31T01:37:22;20.40;52.00
75049;DHT22;63803;53.120;8.764;2022-12-31T01:39:48;21.70;55.70
75049;DHT22;63803;53.120;8.764;2022-12-31T01:42:14;20.20;54.70
75049;DHT22;63803;53.120;8.764;2022-12-31T01:47:13;20.30;54.90
75049;DHT22;63803;53.120;8.764;2022-12-31T01:49:51;22.20;50.90
75049;DHT22;63803;53.120;8.764;2022-12-31T01:52:27;20.80;55.10
75049;DHT22;63803;53.120;8.764;2022-12-31T01:57:46;25.50;57.70
75049;DHT22;63803;53.120;8.764;2022-12-31T02:00:13;20.60;54.80
75049;DHT22;63803;53.120;8.764;2022-12-31T02:02:39;25.30;57.60
75049;DHT22;63803;53.120;8.764;2022-12-31T02:07:48;25.20;57.50
75049;DHT22;63803;53.120;8.764;2022-12-31T02:10:14;22.20;57.00
75049;DHT22;63803;53.120;8.764;2022-12-31T02:12:40;22.20;51.40
75049;DHT22;63803;53.120;8.764;2022-12-31T02:15:07;22.90;56.30
75049;DHT22;63803;53.120;8.764;2022-12-31T02:17:47;22.80;56.30
75049;DHT22;63803;53.120;8.764;2022-12-31T02:26:21;19.90;54.70
75049;DHT22;63803;53.120;8.764;2022-12-31T02:34:31;23.10;56.40
75049;DHT22;63803;53.120;8.764;2022-12-31T02:36:59;20.70;55.10
75049;DHT22;63803;53.120;8.764;2022-12-31T02:39:28;20.10;54.80
75049;DHT22;63803;53.120;8.764;2022-12-31T02:55:32;25.10;57.40
75049;DHT22;63803;53.120;8.764;2022-12-31T03:00:36;23.70;56.70
75049;DHT22;63803;53.120;8.764;2022-12-31T03:03:24;25.60;57.90
75049;DHT22;63803;53.120;8.764;2022-12-31T03:05:51;25.10;57.50
75049;DHT22;63803;53.120;8.764;2022-12-31T03:08:22;25.60;57.80
75049;DHT22;63803;53.120;8.764;2022-12-31T03:10:48;25.50;57.90
75049;DHT22;63803;53.120;8.764;2022-12-31T03:13:15;25.20;57.70
75049;DHT22;63803;53.120;8.764;2022-12-31T03:15:42;20.30;55.10
75049;DHT22;63803;53.120;8.764;2022-12-31T03:18:13;20.40;55.00
75049;DHT22;63803;53.120;8.764;2022-12-31T03:20:42;25.60;57.80
75049;DHT22;63803;53.120;8.764;2022-12-31T03:23:30;22.60;56.10
75049;DHT22;63803;53.120;8.764;2022-12-31T03:25:57;20.90;55.20
75049;DHT22;63803;53.120;8.764;2022-12-31T03:28:26;24.50;57.10
75049;DHT22;63803;53.120;8.764;2022-12-31T03:30:58;25.70;57.80
75049;DHT22;63803;53.120;8.764;2022-12-31T03:33:25;20.40;55.10
75049;DHT22;63803;53.120;8.764;2022-12-31T03:35:54;24.70;57.30
75049;DHT22;63803;53.120;8.764;2022-12-31T03:38:20;24.10;57.10
75049;DHT22;63803;53.120;8.764;2022-12-31T03:40:49;20.10;55.10
75049;DHT22;63803;53.120;8.764;2022-12-31T03:43:16;21.70;55.70
75049;DHT22;63803;53.120;8.764;2022-12-31T03:45:51;20.70;53.70
75049;DHT22;63803;53.120;8.764;2022-12-31T03:50:44;25.10;57.50
75049;DHT22;63803;53.120;8.764;2022-12-31T03:53:10;20.90;55.40
75049;DHT22;63803;53.120;8.764;2022-12-31T03:55:37;20.30;54.70
75049;DHT22;63803;53.120;8.764;2022-12-31T04:00:29;19.80;54.80
75049;DHT22;63803;53.120;8.764;2022-12-31T04:02:55;24.40;57.30
75049;DHT22;63803;53.120;8.764;2022-12-31T04:05:21;23.60;56.90
75049;DHT22;63803;53.120;8.764;2022-12-31T04:07:48;25.00;57.80
75049;DHT22;63803;53.120;8.764;2022-12-31T04:10:15;20.20;54.90
75049;DHT22;63803;53.120;8.764;2022-12-31T04:12:42;20.00;54.80
75049;DHT22;63803;53.120;8.764;2022-12-31T04:15:09;22.50;56.10
75049;DHT22;63803;53.120;8.764;2022-12-31T04:20:03;20.50;55.00
75049;DHT22;63803;53.120;8.764;2022-12-31T04:22:29;20.10;54.90
75049;DHT22;63803;53.120;8.764;2022-12-31T04:24:55;20.50;55.00
75049;DHT22;63803;53.120;8.764;2022-12-31T04:29:47;20.50;55.00
75049;DHT22;63803;53.120;8.764;2022-12-31T04:32:13;25.10;57.70
75049;DHT22;63803;53.120;8.764;2022-12-31T04:34:39;20.60;55.00
75049;DHT22;63803;53.120;8.764;2022-12-31T04:39:31;21.00;55.50
75049;DHT22;63803;53.120;8.764;2022-12-31T04:44:24;20.50;55.00
75049;DHT22;63803;53.120;8.764;2022-12-31T04:46:50;20.70;55.10
75049;DHT22;63803;53.120;8.764;2022-12-31T04:49:16;20.70;55.00
75049;DHT22;63803;53.120;8.764;2022-12-31T04:51:42;25.70;57.90
75049;DHT22;63803;53.120;8.764;2022-12-31T04:54:08;21.10;55.40
75049;DHT22;63803;53.120;8.764;2022-12-31T04:59:04;20.60;51.10
75049;DHT22;63803;53.120;8.764;2022-12-31T05:01:30;25.40;57.80
75049;DHT22;63803;53.120;8.764;2022-12-31T05:03:57;19.50;54.90
75049;DHT22;63803;53.120;8.764;2022-12-31T05:06:23;20.10;54.80
75049;DHT22;63803;53.120;8.764;2022-12-31T05:08:49;25.50;57.60
75049;DHT22;63803;53.120;8.764;2022-12-31T05:11:16;20.70;55.10
75049;DHT22;63803;53.120;8.764;2022-12-31T05:13:42;20.20;54.70
75049;DHT22;63803;53.120;8.764;2022-12-31T05:16:09;20.70;55.00
75049;DHT22;63803;53.120;8.764;2022-12-31T05:18:35;22.20;50.80
75049;DHT22;63803;53.120;8.764;2022-12-31T05:21:02;24.10;56.90
75049;DHT22;63803;53.120;8.764;2022-12-31T05:23:28;24.00;56.90
75049;DHT22;63803;53.120;8.764;2022-12-31T05:25:54;20.40;53.30
75049;DHT22;63803;53.120;8.764;2022-12-31T05:28:21;19.50;54.60
75049;DHT22;63803;53.120;8.764;2022-12-31T05:30:48;20.20;54.20
75049;DHT22;63803;53.120;8.764;2022-12-31T05:33:15;20.70;55.00
75049;DHT22;63803;53.120;8.764;2022-12-31T05:35:41;21.20;55.40
75049;DHT22;63803;53.120;8.764;2022-12-31T05:38:07;20.90;55.30
75049;DHT22;63803;53.120;8.764;2022-12-31T05:40:33;20.60;55.00
75049;DHT22;63803;53.120;8.764;2022-12-31T05:42:59;20.20;54.70
75049;DHT22;63803;53.120;8.764;2022-12-31T05:47:51;20.20;54.70
75049;DHT22;63803;53.120;8.764;2022-12-31T05:50:17;20.00;54.90
75049;DHT22;63803;53.120;8.764;2022-12-31T05:52:44;19.90;54.70
75049;DHT22;63803;53.120;8.764;2022-12-31T05:55:11;22.20;51.40
75049;DHT22;63803;53.120;8.764;2022-12-31T05:57:37;21.80;55.60
75049;DHT22;63803;53.120;8.764;2022-12-31T06:00:05;22.20;50.70
75049;DHT22;63803;53.120;8.764;2022-12-31T06:02:31;21.80;55.30
75049;DHT22;63803;53.120;8.764;2022-12-31T06:04:57;25.60;57.60
75049;DHT22;63803;53.120;8.764;2022-12-31T06:07:23;20.60;54.90
75049;DHT22;63803;53.120;8.764;2022-12-31T06:09:49;20.20;55.00
75049;DHT22;63803;53.120;8.764;2022-12-31T06:12:15;20.30;54.70
75049;DHT22;63803;53.120;8.764;2022-12-31T06:14:42;25.20;57.40
75049;DHT22;63803;53.120;8.764;2022-12-31T06:17:09;20.80;55.00
75049;DHT22;63803;53.120;8.764;2022-12-31T06:19:35;25.10;57.60
75049;DHT22;63803;53.120;8.764;2022-12-31T06:22:01;20.70;55.00
75049;DHT22;63803;53.120;8.764;2022-12-31T06:24:27;20.60;54.90
75049;DHT22;63803;53.120;8.764;2022-12-31T06:26:53;20.70;54.90
75049;DHT22;63803;53.120;8.764;2022-12-31T06:29:19;20.50;54.80
75049;DHT22;63803;53.120;8.764;2022-12-31T06:31:45;21.70;55.50
75049;DHT22;63803;53.120;8.764;2022-12-31T06:34:11;20.80;55.00
75049;DHT22;63803;53.120;8.764;2022-12-31T06:36:37;20.70;55.10
75049;DHT22;63803;53.120;8.764;2022-12-31T06:39:04;20.10;54.70
75049;DHT22;63803;53.120;8.764;2022-12-31T06:41:30;23.10;56.10
75049;DHT22;63803;53.120;8.764;2022-12-31T06:43:56;20.20;54.70
75049;DHT22;63803;53.120;8.764;2022-12-31T06:46:22;22.20;55.70
75049;DHT22;63803;53.120;8.764;2022-12-31T06:51:17;20.60;54.90
75049;DHT22;63803;53.120;8.764;2022-12-31T06:53:45;20.50;54.80
75049;DHT22;63803;53.120;8.764;2022-12-31T06:56:23;20.50;54.80
75049;DHT22;63803;53.120;8.764;2022-12-31T06:58:50;21.10;55.30
75049;DHT22;63803;53.120;8.764;2022-12-31T07:07:10;25.20;57.70
75049;DHT22;63803;53.120;8.764;2022-12-31T07:15:44;20.70;55.40
75049;DHT22;63803;53.120;8.764;2022-12-31T07:20:40;21.10;55.30
75049;DHT22;63803;53.120;8.764;2022-12-31T07:23:07;19.60;54.60
75049;DHT22;63803;53.120;8.764;2022-12-31T07:25:34;20.80;55.10
75049;DHT22;63803;53.120;8.764;2022-12-31T07:31:10;24.10;57.00
75049;DHT22;63803;53.120;8.764;2022-12-31T07:33:53;22.20;50.80
75049;DHT22;63803;53.120;8.764;2022-12-31T07:39:05;24.20;57.00
75049;DHT22;63803;53.120;8.764;2022-12-31T07:46:58;25.00;57.30
75049;DHT22;63803;53.120;8.764;2022-12-31T07:49:26;23.10;51.60
75049;DHT22;63803;53.120;8.764;2022-12-31T07:51:53;20.90;55.00
75049;DHT22;63803;53.120;8.764;2022-12-31T07:54:20;20.70;55.00
75049;DHT22;63803;53.120;8.764;2022-12-31T07:56:46;24.20;56.80
75049;DHT22;63803;53.120;8.764;2022-12-31T07:59:35;21.40;55.40
75049;DHT22;63803;53.120;8.764;2022-12-31T08:02:28;22.10;50.70
75049;DHT22;63803;53.120;8.764;2022-12-31T08:05:12;19.80;54.70
75049;DHT22;63803;53.120;8.764;2022-12-31T08:10:46;20.10;55.00
75049;DHT22;63803;53.120;8.764;2022-12-31T08:18:09;20.50;54.80
75049;DHT22;63803;53.120;8.764;2022-12-31T08:20:47;25.50;58.00
75049;DHT22;63803;53.120;8.764;2022-12-31T08:32:12;22.20;51.20
75049;DHT22;63803;53.120;8.764;2022-12-31T08:38:23;22.70;56.10
75049;DHT22;63803;53.120;8.764;2022-12-31T08:40:58;24.80;58.20
75049;DHT22;63803;53.120;8.764;2022-12-31T08:51:43;24.30;55.10
75049;DHT22;63803;53.120;8.764;2022-12-31T08:54:10;24.80;57.30
75049;DHT22;63803;53.120;8.764;2022-12-31T08:56:48;20.60;53.80
75049;DHT22;63803;53.120;8.764;2022-12-31T09:07:01;22.20;51.00
75049;DHT22;63803;53.120;8.764;2022-12-31T09:09:35;20.50;55.20
75049;DHT22;63803;53.120;8.764;2022-12-31T09:17:37;20.20;55.00
75049;DHT22;63803;53.120;8.764;2022-12-31T09:20:23;24.20;57.10
75049;DHT22;63803;53.120;8.764;2022-12-31T09:22:51;24.40;57.50
75049;DHT22;63803;53.120;8.764;2022-12-31T09:25:19;20.60;55.00
75049;DHT22;63803;53.120;8.764;2022-12-31T09:30:21;20.60;55.30
75049;DHT22;63803;53.120;8.764;2022-12-31T09:35:38;25.00;57.80
75049;DHT22;63803;53.120;8.764;2022-12-31T09:38:18;20.50;51.20
75049;DHT22;63803;53.120;8.764;2022-12-31T09:41:13;25.80;58.20
75049;DHT22;63803;53.120;8.764;2022-12-31T09:49:56;25.50;58.20
75049;DHT22;63803;53.120;8.764;2022-12-31T09:55:36;20.20;55.30
75049;DHT22;63803;53.120;8.764;2022-12-31T10:01:01;22.20;56.30
75049;DHT22;63803;53.120;8.764;2022-12-31T10:17:40;22.20;51.20
75049;DHT22;63803;53.120;8.764;2022-12-31T10:20:26;20.00;55.20
75049;DHT22;63803;53.120;8.764;2022-12-31T10:36:41;25.60;58.30
75049;DHT22;63803;53.120;8.764;2022-12-31T10:39:28;22.20;51.30
75049;DHT22;63803;53.120;8.764;2022-12-31T10:45:03;19.70;55.20
75049;DHT22;63803;53.120;8.764;2022-12-31T11:14:43;20.20;55.40
75049;DHT22;63803;53.120;8.764;2022-12-31T11:17:34;20.10;55.40
75049;DHT22;63803;53.120;8.764;2022-12-31T11:20:24;25.20;58.40
75049;DHT22;63803;53.120;8.764;2022-12-31T11:36:32;20.30;55.50
75049;DHT22;63803;53.120;8.764;2022-12-31T11:41:52;20.10;55.70
75049;DHT22;63803;53.120;8.764;2022-12-31T11:44:45;20.40;55.60
75049;DHT22;63803;53.120;8.764;2022-12-31T11:52:44;20.50;52.20
75049;DHT22;63803;53.120;8.764;2022-12-31T11:55:26;25.00;58.20
75049;DHT22;63803;53.120;8.764;2022-12-31T11:57:58;20.70;56.00
75049;DHT22;63803;53.120;8.764;2022-12-31T12:00:29;22.60;56.70
75049;DHT22;63803;53.120;8.764;2022-12-31T12:03:02;20.30;55.70
75049;DHT22;63803;53.120;8.764;2022-12-31T12:07:55;25.70;58.60
75049;DHT22;63803;53.120;8.764;2022-12-31T12:10:37;25.00;58.10
75049;DHT22;63803;53.120;8.764;2022-12-31T12:13:26;21.90;53.80
75049;DHT22;63803;53.120;8.764;2022-12-31T12:15:58;21.80;56.60
75049;DHT22;63803;53.120;8.764;2022-12-31T12:18:45;22.10;57.10
75049;DHT22;63803;53.120;8.764;2022-12-31T12:21:21;20.30;55.70
75049;DHT22;63803;53.120;8.764;2022-12-31T12:24:13;22.20;56.70
75049;DHT22;63803;53.120;8.764;2022-12-31T12:26:42;19.50;55.60
75049;DHT22;63803;53.120;8.764;2022-12-31T12:29:17;20.70;55.90
75049;DHT22;63803;53.120;8.764;2022-12-31T12:32:01;20.30;52.60
75049;DHT22;63803;53.120;8.764;2022-12-31T12:34:31;22.20;52.20
75049;DHT22;63803;53.120;8.764;2022-12-31T12:36:57;22.20;52.20
75049;DHT22;63803;53.120;8.764;2022-12-31T12:39:27;22.20;51.70
75049;DHT22;63803;53.120;8.764;2022-12-31T12:42:12;21.70;56.40
75049;DHT22;63803;53.120;8.764;2022-12-31T12:44:39;24.90;58.40
75049;DHT22;63803;53.120;8.764;2022-12-31T12:47:13;21.50;56.30
75049;DHT22;63803;53.120;8.764;2022-12-31T12:49:45;20.20;55.40
75049;DHT22;63803;53.120;8.764;2022-12-31T12:55:24;25.70;58.90
75049;DHT22;63803;53.120;8.764;2022-12-31T13:01:03;22.90;57.50
75049;DHT22;63803;53.120;8.764;2022-12-31T13:03:42;23.00;57.30
75049;DHT22;63803;53.120;8.764;2022-12-31T13:11:42;20.50;53.20
75049;DHT22;63803;53.120;8.764;2022-12-31T13:14:31;19.60;55.60
75049;DHT22;63803;53.120;8.764;2022-12-31T13:19:49;22.20;51.90
75049;DHT22;63803;53.120;8.764;2022-12-31T13:25:42;20.60;55.90
75049;DHT22;63803;53.120;8.764;2022-12-31T13:27:50;23.20;57.70
75049;DHT22;63803;53.120;8.764;2022-12-31T13:30:41;20.30;56.50
75049;DHT22;63803;53.120;8.764;2022-12-31T13:35:55;22.20;52.30
75049;DHT22;63803;53.120;8.764;2022-12-31T13:38:34;20.00;56.80
75049;DHT22;63803;53.120;8.764;2022-12-31T13:41:08;23.30;58.70
75049;DHT22;63803;53.120;8.764;2022-12-31T13:43:55;23.80;55.10
75049;DHT22;63803;53.120;8.764;2022-12-31T13:51:46;23.70;61.00
75049;DHT22;63803;53.120;8.764;2022-12-31T13:56:47;22.40;54.90
75049;DHT22;63803;53.120;8.764;2022-12-31T14:01:51;20.00;58.90
75049;DHT22;63803;53.120;8.764;2022-12-31T14:04:32;21.80;54.80
75049;DHT22;63803;53.120;8.764;2022-12-31T14:07:19;22.70;54.50
75049;DHT22;63803;53.120;8.764;2022-12-31T14:09:46;20.50;58.00
75049;DHT22;63803;53.120;8.764;2022-12-31T14:12:23;23.00;54.00
75049;DHT22;63803;53.120;8.764;2022-12-31T14:15:22;21.70;58.20
75049;DHT22;63803;53.120;8.764;2022-12-31T14:20:55;21.30;54.90
75049;DHT22;63803;53.120;8.764;2022-12-31T14:24:05;23.30;54.50
75049;DHT22;63803;53.120;8.764;2022-12-31T14:26:18;24.60;59.80
75049;DHT22;63803;53.120;8.764;2022-12-31T14:42:38;24.30;58.90
75049;DHT22;63803;53.120;8.764;2022-12-31T14:45:40;25.90;61.70
75049;DHT22;63803;53.120;8.764;2022-12-31T14:51:00;20.60;63.80
75049;DHT22;63803;53.120;8.764;2022-12-31T14:53:27;20.10;63.40
75049;DHT22;63803;53.120;8.764;2022-12-31T14:56:05;20.20;63.80
75049;DHT22;63803;53.120;8.764;2022-12-31T14:58:35;25.00;66.10
75049;DHT22;63803;53.120;8.764;2022-12-31T15:01:06;20.70;63.30
75049;DHT22;63803;53.120;8.764;2022-12-31T15:03:44;21.80;63.20
75049;DHT22;63803;53.120;8.764;2022-12-31T15:06:36;21.50;62.00
75049;DHT22;63803;53.120;8.764;2022-12-31T15:15:28;20.60;61.00
75049;DHT22;63803;53.120;8.764;2022-12-31T15:23:35;25.10;62.70
75049;DHT22;63803;53.120;8.764;2022-12-31T15:26:03;21.50;57.40
75049;DHT22;63803;53.120;8.764;2022-12-31T15:28:38;21.40;60.40
75049;DHT22;63803;53.120;8.764;2022-12-31T15:31:14;24.20;62.70
75049;DHT22;63803;53.120;8.764;2022-12-31T15:34:05;23.50;56.70
75049;DHT22;63803;53.120;8.764;2022-12-31T15:36:36;21.10;60.30
75049;DHT22;63803;53.120;8.764;2022-12-31T15:39:22;23.50;56.70
75049;DHT22;63803;53.120;8.764;2022-12-31T15:41:50;25.50;62.80
75049;DHT22;63803;53.120;8.764;2022-12-31T15:47:35;21.30;60.40
75049;DHT22;63803;53.120;8.764;2022-12-31T15:50:05;21.40;60.30
75049;DHT22;63803;53.120;8.764;2022-12-31T15:52:41;25.30;61.00
75049;DHT22;63803;53.120;8.764;2022-12-31T15:55:37;26.90;63.60
75049;DHT22;63803;53.120;8.764;2022-12-31T15:58:05;23.60;56.90
75049;DHT22;63803;53.120;8.764;2022-12-31T16:01:08;23.60;56.70
75049;DHT22;63803;53.120;8.764;2022-12-31T16:03:35;24.70;62.10
75049;DHT22;63803;53.120;8.764;2022-12-31T16:06:07;22.60;61.00
75049;DHT22;63803;53.120;8.764;2022-12-31T16:08:35;21.50;60.00
75049;DHT22;63803;53.120;8.764;2022-12-31T16:11:04;21.40;59.80
75049;DHT22;63803;53.120;8.764;2022-12-31T16:13:31;21.00;60.30
75049;DHT22;63803;53.120;8.764;2022-12-31T16:16:03;21.60;61.10
75049;DHT22;63803;53.120;8.764;2022-12-31T16:18:41;21.30;61.70
75049;DHT22;63803;53.120;8.764;2022-12-31T16:21:30;26.00;64.20
75049;DHT22;63803;53.120;8.764;2022-12-31T16:24:29;23.10;57.00
75049;DHT22;63803;53.120;8.764;2022-12-31T16:27:01;22.30;61.10
75049;DHT22;63803;53.120;8.764;2022-12-31T16:29:29;26.80;63.70
75049;DHT22;63803;53.120;8.764;2022-12-31T16:31:56;21.30;59.90
75049;DHT22;63803;53.120;8.764;2022-12-31T16:34:24;26.60;63.60
75049;DHT22;63803;53.120;8.764;2022-12-31T16:36:56;25.40;62.40
75049;DHT22;63803;53.120;8.764;2022-12-31T16:41:50;21.30;59.80
75049;DHT22;63803;53.120;8.764;2022-12-31T16:44:27;21.90;60.30
75049;DHT22;63803;53.120;8.764;2022-12-31T16:46:55;26.90;62.90
75049;DHT22;63803;53.120;8.764;2022-12-31T16:49:23;21.40;60.80
75049;DHT22;63803;53.120;8.764;2022-12-31T16:51:50;21.30;60.40
75049;DHT22;63803;53.120;8.764;2022-12-31T16:54:35;21.60;60.50
75049;DHT22;63803;53.120;8.764;2022-12-31T16:57:03;22.80;61.00
75049;DHT22;63803;53.120;8.764;2022-12-31T16:59:43;21.40;59.90
75049;DHT22;63803;53.120;8.764;2022-12-31T17:02:20;24.80;61.70
75049;DHT22;63803;53.120;8.764;2022-12-31T17:04:48;21.40;59.60
75049;DHT22;63803;53.120;8.764;2022-12-31T17:07:38;26.20;62.50
75049;DHT22;63803;53.120;8.764;2022-12-31T17:12:36;22.10;59.90
75049;DHT22;63803;53.120;8.764;2022-12-31T17:15:15;21.20;59.60
75049;DHT22;63803;53.120;8.764;2022-12-31T17:17:41;27.00;62.80
75049;DHT22;63803;53.120;8.764;2022-12-31T17:20:16;23.60;55.80
75049;DHT22;63803;53.120;8.764;2022-12-31T17:25:24;21.20;58.70
75049;DHT22;63803;53.120;8.764;2022-12-31T17:28:21;26.30;62.50
75049;DHT22;63803;53.120;8.764;2022-12-31T17:30:47;24.60;63.20
75049;DHT22;63803;53.120;8.764;2022-12-31T17:35:44;25.00;64.40
75049;DHT22;63803;53.120;8.764;2022-12-31T17:40:44;25.80;66.00
75049;DHT22;63803;53.120;8.764;2022-12-31T17:43:11;20.60;63.10
75049;DHT22;63803;53.120;8.764;2022-12-31T17:45:38;20.50;63.70
75049;DHT22;63803;53.120;8.764;2022-12-31T17:48:06;20.70;63.80
75049;DHT22;63803;53.120;8.764;2022-12-31T17:50:32;25.90;66.80
75049;DHT22;63803;53.120;8.764;2022-12-31T17:53:01;24.50;66.10
75049;DHT22;63803;53.120;8.764;2022-12-31T17:55:33;22.50;65.00
75049;DHT22;63803;53.120;8.764;2022-12-31T17:58:02;22.50;60.00
75049;DHT22;63803;53.120;8.764;2022-12-31T18:02:55;25.90;67.70
75049;DHT22;63803;53.120;8.764;2022-12-31T18:05:22;25.90;67.60
75049;DHT22;63803;53.120;8.764;2022-12-31T18:07:48;20.80;66.00
75049;DHT22;63803;53.120;8.764;2022-12-31T18:10:16;21.20;65.30
75049;DHT22;63803;53.120;8.764;2022-12-31T18:12:45;21.00;61.90
75049;DHT22;63803;53.120;8.764;2022-12-31T18:15:16;21.00;64.90
75049;DHT22;63803;53.120;8.764;2022-12-31T18:17:43;26.10;68.20
75049;DHT22;63803;53.120;8.764;2022-12-31T18:20:09;24.80;67.30
75049;DHT22;63803;53.120;8.764;2022-12-31T18:22:36;26.00;68.30
75049;DHT22;63803;53.120;8.764;2022-12-31T18:25:03;25.80;68.10
75049;DHT22;63803;53.120;8.764;2022-12-31T18:27:31;21.10;63.40
75049;DHT22;63803;53.120;8.764;2022-12-31T18:29:58;25.90;68.30
75049;DHT22;63803;53.120;8.764;2022-12-31T18:32:28;24.40;67.60
75049;DHT22;63803;53.120;8.764;2022-12-31T18:34:56;22.90;66.30
75049;DHT22;63803;53.120;8.764;2022-12-31T18:37:22;21.20;65.60
75049;DHT22;63803;53.120;8.764;2022-12-31T18:39:48;25.20;68.30
75049;DHT22;63803;53.120;8.764;2022-12-31T18:42:17;20.00;65.60
75049;DHT22;63803;53.120;8.764;2022-12-31T18:44:43;20.80;61.30
75049;DHT22;63803;53.120;8.764;2022-12-31T18:47:17;20.70;65.70
75049;DHT22;63803;53.120;8.764;2022-12-31T18:49:44;20.10;65.60
75049;DHT22;63803;53.120;8.764;2022-12-31T18:52:18;25.00;68.10
75049;DHT22;63803;53.120;8.764;2022-12-31T18:54:46;22.20;67.10
75049;DHT22;63803;53.120;8.764;2022-12-31T18:57:13;20.30;65.80
75049;DHT22;63803;53.120;8.764;2022-12-31T18:59:39;21.40;66.20
75049;DHT22;63803;53.120;8.764;2022-12-31T19:02:13;25.50;68.80
75049;DHT22;63803;53.120;8.764;2022-12-31T19:04:39;21.10;66.00
75049;DHT22;63803;53.120;8.764;2022-12-31T19:09:32;20.90;65.00
75049;DHT22;63803;53.120;8.764;2022-12-31T19:11:58;21.10;66.40
75049;DHT22;63803;53.120;8.764;2022-12-31T19:14:24;20.60;66.20
75049;DHT22;63803;53.120;8.764;2022-12-31T19:16:52;25.00;68.80
75049;DHT22;63803;53.120;8.764;2022-12-31T19:19:19;20.80;66.60
75049;DHT22;63803;53.120;8.764;2022-12-31T19:21:45;20.70;66.30
75049;DHT22;63803;53.120;8.764;2022-12-31T19:24:15;22.70;62.40
75049;DHT22;63803;53.120;8.764;2022-12-31T19:26:42;22.60;62.90
75049;DHT22;63803;53.120;8.764;2022-12-31T19:29:21;22.30;68.20
75049;DHT22;63803;53.120;8.764;2022-12-31T19:34:14;20.10;66.60
75049;DHT22;63803;53.120;8.764;2022-12-31T19:36:41;25.80;69.80
75049;DHT22;63803;53.120;8.764;2022-12-31T19:39:13;22.70;62.80
75049;DHT22;63803;53.120;8.764;2022-12-31T19:41:43;21.10;63.80
75049;DHT22;63803;53.120;8.764;2022-12-31T19:44:16;24.60;69.40
75049;DHT22;63803;53.120;8.764;2022-12-31T19:46:43;24.50;69.10
75049;DHT22;63803;53.120;8.764;2022-12-31T19:49:13;24.80;69.60
75049;DHT22;63803;53.120;8.764;2022-12-31T19:51:40;26.00;70.20
75049;DHT22;63803;53.120;8.764;2022-12-31T19:54:06;20.80;68.30
75049;DHT22;63803;53.120;8.764;2022-12-31T19:56:33;25.80;71.10
75049;DHT22;63803;53.120;8.764;2022-12-31T19:59:06;22.70;63.30
75049;DHT22;63803;53.120;8.764;2022-12-31T20:01:33;24.70;69.60
75049;DHT22;63803;53.120;8.764;2022-12-31T20:03:59;20.70;67.00
75049;DHT22;63803;53.120;8.764;2022-12-31T20:06:26;25.90;70.50
75049;DHT22;63803;53.120;8.764;2022-12-31T20:11:20;25.90;70.50
75049;DHT22;63803;53.120;8.764;2022-12-31T20:13:48;21.60;68.00
75049;DHT22;63803;53.120;8.764;2022-12-31T20:16:16;26.10;70.70
75049;DHT22;63803;53.120;8.764;2022-12-31T20:18:43;21.20;67.60
75049;DHT22;63803;53.120;8.764;2022-12-31T20:21:12;25.00;69.80
75049;DHT22;63803;53.120;8.764;2022-12-31T20:23:39;20.80;67.50
75049;DHT22;63803;53.120;8.764;2022-12-31T20:26:05;19.80;67.30
75049;DHT22;63803;53.120;8.764;2022-12-31T20:30:57;20.90;67.60
75049;DHT22;63803;53.120;8.764;2022-12-31T20:33:23;22.00;68.20
75049;DHT22;63803;53.120;8.764;2022-12-31T20:35:52;21.50;68.20
75049;DHT22;63803;53.120;8.764;2022-12-31T20:38:18;21.30;68.00
75049;DHT22;63803;53.120;8.764;2022-12-31T20:40:44;20.80;67.70
75049;DHT22;63803;53.120;8.764;2022-12-31T20:43:10;21.30;68.00
75049;DHT22;63803;53.120;8.764;2022-12-31T20:45:39;21.80;68.50
75049;DHT22;63803;53.120;8.764;2022-12-31T20:48:05;21.00;67.90
75049;DHT22;63803;53.120;8.764;2022-12-31T20:50:31;21.40;68.00
75049;DHT22;63803;53.120;8.764;2022-12-31T20:52:57;26.20;71.90
75049;DHT22;63803;53.120;8.764;2022-12-31T20:55:23;21.00;68.60
75049;DHT22;63803;53.120;8.764;2022-12-31T20:57:49;21.80;68.90
75049;DHT22;63803;53.120;8.764;2022-12-31T21:00:17;22.70;64.90
75049;DHT22;63803;53.120;8.764;2022-12-31T21:02:43;26.00;72.40
75049;DHT22;63803;53.120;8.764;2022-12-31T21:07:36;21.40;69.00
75049;DHT22;63803;53.120;8.764;2022-12-31T21:10:02;24.00;70.10
75049;DHT22;63803;53.120;8.764;2022-12-31T21:12:28;20.70;68.60
75049;DHT22;63803;53.120;8.764;2022-12-31T21:15:10;25.00;70.30
75049;DHT22;63803;53.120;8.764;2022-12-31T21:20:04;20.40;67.70